createdAt,value
2018-03-29T00:02:16.139Z,65.60
2018-03-29T00:04:44.603Z,67.20
2018-03-29T00:07:13.057Z,67.50
2018-03-29T00:09:41.564Z,64.60
2018-03-29T00:12:10.053Z,68.03
2018-03-29T00:14:38.526Z,63.87
2018-03-29T00:17:07.000Z,70.30
2018-03-29T00:19:35.487Z,67.90
2018-03-29T00:22:03.988Z,70.27
2018-03-29T00:24:32.972Z,72.60
2018-03-29T00:27:02.442Z,71.70
2018-03-29T00:29:32.970Z,71.87
2018-03-29T00:32:02.259Z,73.13
2018-03-29T00:34:31.755Z,71.70
2018-03-29T00:37:02.129Z,72.77
2018-03-29T00:39:32.004Z,73.20
2018-03-29T00:42:01.990Z,71.20
2018-03-29T00:44:31.684Z,70.50
2018-03-29T00:47:01.324Z,69.07
2018-03-29T00:49:31.268Z,62.60
2018-03-29T00:51:59.963Z,65.53
2018-03-29T00:54:30.381Z,67.33
2018-03-29T00:56:59.216Z,69.87
2018-03-29T00:59:30.153Z,67.07
2018-03-29T01:01:58.756Z,66.63
2018-03-29T01:04:27.508Z,66.83
2018-03-29T01:06:56.321Z,61.67
2018-03-29T01:09:25.128Z,63.00
2018-03-29T01:11:54.823Z,59.30
2018-03-29T01:14:24.275Z,61.47
2018-03-29T01:16:54.174Z,61.30
2018-03-29T01:19:26.106Z,57.53
2018-03-29T01:21:54.874Z,57.47
2018-03-29T01:24:24.124Z,59.10
2018-03-29T01:26:53.057Z,60.03
2018-03-29T01:29:21.830Z,60.57
2018-03-29T01:31:50.814Z,60.07
2018-03-29T01:34:19.556Z,58.00
2018-03-29T01:36:48.738Z,58.10
2018-03-29T01:39:18.995Z,56.40
2018-03-29T01:41:48.822Z,56.83
2018-03-29T01:44:18.871Z,61.43
2018-03-29T01:46:47.817Z,59.43
2018-03-29T01:49:16.722Z,64.80
2018-03-29T01:51:45.396Z,64.10
2018-03-29T01:54:14.310Z,63.50
2018-03-29T01:56:43.352Z,62.60
2018-03-29T01:59:13.240Z,61.97
2018-03-29T02:01:42.892Z,61.83
2018-03-29T02:04:11.423Z,65.80
2018-03-29T02:06:40.581Z,66.00
2018-03-29T02:09:10.065Z,66.23
2018-03-29T02:11:38.986Z,61.23
2018-03-29T02:14:09.877Z,63.57
2018-03-29T02:16:38.327Z,59.77
2018-03-29T02:19:06.833Z,59.43
2018-03-29T02:21:35.287Z,62.77
2018-03-29T02:24:03.742Z,65.77
2018-03-29T02:26:32.228Z,64.07
2018-03-29T02:29:01.101Z,67.73
2018-03-29T02:31:29.562Z,69.87
2018-03-29T02:33:58.014Z,68.50
2018-03-29T02:36:26.974Z,67.83
2018-03-29T02:38:55.836Z,67.80
2018-03-29T02:41:24.858Z,70.57
2018-03-29T02:43:54.442Z,69.50
2018-03-29T02:46:24.659Z,68.93
2018-03-29T02:48:53.122Z,70.03
2018-03-29T02:51:21.565Z,73.37
2018-03-29T02:53:50.172Z,69.23
2018-03-29T02:56:18.621Z,69.43
2018-03-29T02:58:47.075Z,69.80
2018-03-29T03:01:15.529Z,73.50
2018-03-29T03:03:44.409Z,74.40
2018-03-29T03:06:14.262Z,66.50
2018-03-29T03:08:42.807Z,72.40
2018-03-29T03:11:11.870Z,64.30
2018-03-29T03:13:40.430Z,65.97
2018-03-29T03:16:10.919Z,62.00
2018-03-29T03:18:39.472Z,64.83
2018-03-29T03:21:08.711Z,68.83
2018-03-29T03:23:37.603Z,65.43
2018-03-29T03:26:06.482Z,66.43
2018-03-29T03:28:34.965Z,68.90
2018-03-29T03:31:03.538Z,63.00
2018-03-29T03:33:31.988Z,61.00
2018-03-29T03:36:04.604Z,62.33
2018-03-29T03:38:33.077Z,60.47
2018-03-29T03:41:01.568Z,57.30
2018-03-29T03:43:30.097Z,59.67
2018-03-29T03:45:59.045Z,57.00
2018-03-29T03:48:27.533Z,56.37
2018-03-29T03:50:56.002Z,55.03
2018-03-29T03:53:24.450Z,52.00
2018-03-29T03:55:52.903Z,49.80
2018-03-29T03:58:21.786Z,51.27
2018-03-29T04:00:50.232Z,50.07
2018-03-29T04:03:18.715Z,47.17
2018-03-29T04:05:47.183Z,45.63
2018-03-29T04:08:15.687Z,43.73
2018-03-29T04:10:44.144Z,41.50
2018-03-29T04:13:12.738Z,39.80
2018-03-29T04:15:41.185Z,37.93
2018-03-29T04:18:10.094Z,35.63
2018-03-29T04:20:39.743Z,36.70
2018-03-29T04:23:10.166Z,34.23
2018-03-29T04:25:41.943Z,32.30
2018-03-29T04:28:10.720Z,31.10
2018-03-29T04:30:40.059Z,29.47
2018-03-29T04:33:08.926Z,30.97
2018-03-29T04:35:38.068Z,28.67
2018-03-29T04:38:08.218Z,29.47
2018-03-29T04:40:37.615Z,27.77
2018-03-29T04:43:06.756Z,29.27
2018-03-29T04:45:37.354Z,30.77
2018-03-29T04:48:06.230Z,30.43
2018-03-29T04:50:36.173Z,27.97
2018-03-29T04:53:04.669Z,28.77
2018-03-29T04:55:33.608Z,29.00
2018-03-29T04:58:07.032Z,25.80
2018-03-29T05:00:35.500Z,26.30
2018-03-29T05:03:03.962Z,25.57
2018-03-29T05:05:32.464Z,26.23
2018-03-29T05:08:01.038Z,25.43
2018-03-29T05:10:29.615Z,24.33
2018-03-29T05:12:58.089Z,23.80
2018-03-29T05:15:27.781Z,25.13
2018-03-29T05:18:00.720Z,24.50
2018-03-29T05:20:29.182Z,23.83
2018-03-29T05:22:57.783Z,25.37
2018-03-29T05:25:26.276Z,23.57
2018-03-29T05:27:57.139Z,20.23
2018-03-29T05:30:25.965Z,18.43
2018-03-29T05:32:54.424Z,15.43
2018-03-29T05:35:22.878Z,14.90
2018-03-29T05:37:51.348Z,14.57
2018-03-29T05:40:20.024Z,10.87
2018-03-29T05:42:48.525Z,10.20
2018-03-29T05:45:17.470Z,9.83
2018-03-29T05:47:45.950Z,9.90
2018-03-29T05:50:14.384Z,8.00
2018-03-29T05:52:42.910Z,8.00
2018-03-29T05:55:12.117Z,7.60
2018-03-29T05:57:41.452Z,7.83
2018-03-29T06:00:10.402Z,8.33
2018-03-29T06:02:38.933Z,9.50
2018-03-29T06:05:08.653Z,11.00
2018-03-29T06:07:37.772Z,10.63
2018-03-29T06:10:06.261Z,9.33
2018-03-29T06:12:34.694Z,8.77
2018-03-29T06:15:08.645Z,8.87
2018-03-29T06:17:37.143Z,8.77
2018-03-29T06:20:05.596Z,8.70
2018-03-29T06:22:34.211Z,8.50
2018-03-29T06:25:02.651Z,8.80
2018-03-29T06:27:31.532Z,9.93
2018-03-29T06:30:00.475Z,7.73
2018-03-29T06:32:28.950Z,7.90
2018-03-29T06:34:57.429Z,7.07
2018-03-29T06:37:25.899Z,7.50
2018-03-29T06:39:54.366Z,8.00
2018-03-29T06:42:22.814Z,7.43
2018-03-29T06:44:51.365Z,6.73
2018-03-29T06:47:19.838Z,7.10
2018-03-29T06:49:48.328Z,6.60
2018-03-29T06:52:17.116Z,5.97
2018-03-29T06:54:45.593Z,5.87
2018-03-29T06:57:14.078Z,6.07
2018-03-29T06:59:43.062Z,5.83
2018-03-29T07:02:12.045Z,5.17
2018-03-29T07:04:40.755Z,5.47
2018-03-29T07:07:10.235Z,4.57
2018-03-29T07:09:38.682Z,4.50
2018-03-29T07:12:07.708Z,4.30
2018-03-29T07:14:36.226Z,4.17
2018-03-29T07:17:05.650Z,4.30
2018-03-29T07:19:34.094Z,3.83
2018-03-29T07:22:03.223Z,3.80
2018-03-29T07:24:31.976Z,3.87
2018-03-29T07:27:01.433Z,4.00
2018-03-29T07:29:30.367Z,3.90
2018-03-29T07:32:00.096Z,3.50
2018-03-29T07:34:29.791Z,3.80
2018-03-29T07:36:58.589Z,3.97
2018-03-29T07:39:27.867Z,4.00
2018-03-29T07:41:57.985Z,3.97
2018-03-29T07:44:28.290Z,3.50
2018-03-29T07:46:57.851Z,3.73
2018-03-29T07:49:27.358Z,3.47
2018-03-29T07:51:56.620Z,3.87
2018-03-29T07:54:26.304Z,3.60
2018-03-29T07:56:56.709Z,3.80
2018-03-29T07:59:25.271Z,3.63
2018-03-29T08:01:53.625Z,3.37
2018-03-29T08:04:21.991Z,3.00
2018-03-29T08:06:50.338Z,2.80
2018-03-29T08:09:18.682Z,4.10
2018-03-29T08:11:47.067Z,3.07
2018-03-29T08:14:15.435Z,3.43
2018-03-29T08:16:43.813Z,2.70
2018-03-29T08:19:12.173Z,2.80
2018-03-29T08:21:40.518Z,3.00
2018-03-29T08:24:09.253Z,2.80
2018-03-29T08:26:37.721Z,3.00
2018-03-29T08:29:06.084Z,2.73
2018-03-29T08:31:34.498Z,2.80
2018-03-29T08:34:02.872Z,2.70
2018-03-29T08:36:31.267Z,2.73
2018-03-29T08:38:59.613Z,2.63
2018-03-29T08:41:28.018Z,2.47
2018-03-29T08:43:56.379Z,2.30
2018-03-29T08:46:24.768Z,2.50
2018-03-29T08:48:53.132Z,2.63
2018-03-29T08:51:21.478Z,2.60
2018-03-29T08:53:50.309Z,3.10
2018-03-29T08:56:18.666Z,2.87
2018-03-29T08:58:47.003Z,2.87
2018-03-29T09:01:15.347Z,4.70
2018-03-29T09:03:43.708Z,3.30
2018-03-29T09:06:12.117Z,3.67
2018-03-29T09:08:40.461Z,3.27
2018-03-29T09:11:08.844Z,2.43
2018-03-29T09:13:37.198Z,3.43
2018-03-29T09:16:05.923Z,3.03
2018-03-29T09:18:34.303Z,3.00
2018-03-29T09:21:02.701Z,3.73
2018-03-29T09:23:31.035Z,3.33
2018-03-29T09:25:59.427Z,3.70
2018-03-29T09:28:27.828Z,4.27
2018-03-29T09:30:56.184Z,4.40
2018-03-29T09:33:24.547Z,3.13
2018-03-29T09:35:52.919Z,4.13
2018-03-29T09:38:21.658Z,4.77
2018-03-29T09:40:50.124Z,4.40
2018-03-29T09:43:18.491Z,5.10
2018-03-29T09:45:46.857Z,4.30
2018-03-29T09:48:15.257Z,4.43
2018-03-29T09:50:43.610Z,4.00
2018-03-29T09:53:11.948Z,3.70
2018-03-29T09:55:40.309Z,4.97
2018-03-29T09:58:08.688Z,4.40
2018-03-29T10:00:37.025Z,3.93
2018-03-29T10:03:10.400Z,4.30
2018-03-29T10:05:39.151Z,3.43
2018-03-29T10:08:06.850Z,3.30
2018-03-29T10:10:34.894Z,2.87
2018-03-29T10:13:02.546Z,3.20
2018-03-29T10:15:30.198Z,3.30
2018-03-29T10:17:57.849Z,4.50
2018-03-29T10:20:25.487Z,3.20
2018-03-29T10:22:53.152Z,2.97
2018-03-29T10:25:20.818Z,4.03
2018-03-29T10:27:48.554Z,3.10
2018-03-29T10:30:16.583Z,3.80
2018-03-29T10:32:44.295Z,3.57
2018-03-29T10:35:12.322Z,4.13
2018-03-29T10:37:39.961Z,3.57
2018-03-29T10:40:08.006Z,3.03
2018-03-29T10:42:36.029Z,2.83
2018-03-29T10:45:03.754Z,3.47
2018-03-29T10:47:31.698Z,2.60
2018-03-29T10:49:59.736Z,3.00
2018-03-29T10:52:27.391Z,2.93
2018-03-29T10:54:55.136Z,4.03
2018-03-29T10:57:22.855Z,3.40
2018-03-29T10:59:50.898Z,3.60
2018-03-29T11:02:18.555Z,3.17
2018-03-29T11:04:46.255Z,4.10
2018-03-29T11:07:14.282Z,3.20
2018-03-29T11:09:42.016Z,2.37
2018-03-29T11:12:09.748Z,3.00
2018-03-29T11:14:37.796Z,2.57
2018-03-29T11:17:05.448Z,3.20
2018-03-29T11:19:33.163Z,2.80
2018-03-29T11:22:01.295Z,2.53
2018-03-29T11:24:28.975Z,2.80
2018-03-29T11:26:56.604Z,2.60
2018-03-29T11:31:58.408Z,2.90
2018-03-29T11:34:26.038Z,2.80
2018-03-29T11:36:53.706Z,3.07
2018-03-29T11:39:21.378Z,3.83
2018-03-29T11:41:49.039Z,3.50
2018-03-29T11:44:16.687Z,3.30
2018-03-29T11:46:44.339Z,3.20
2018-03-29T11:49:11.986Z,3.97
2018-03-29T11:51:39.639Z,3.80
2018-03-29T11:54:07.324Z,3.77
2018-03-29T11:56:34.994Z,3.00
2018-03-29T11:59:02.631Z,3.83
2018-03-29T12:01:30.299Z,3.07
2018-03-29T12:03:57.951Z,3.30
2018-03-29T12:06:25.603Z,3.33
2018-03-29T12:08:53.672Z,3.23
2018-03-29T12:11:21.316Z,3.93
2018-03-29T12:13:48.992Z,5.13
2018-03-29T12:16:17.050Z,3.90
2018-03-29T12:18:45.095Z,4.10
2018-03-29T12:21:12.740Z,3.97
2018-03-29T12:23:40.403Z,3.70
2018-03-29T12:26:08.131Z,3.63
2018-03-29T12:28:35.807Z,3.50
2018-03-29T12:31:03.468Z,4.03
2018-03-29T12:33:31.104Z,3.57
2018-03-29T12:35:59.127Z,3.70
2018-03-29T12:38:26.849Z,3.50
2018-03-29T12:40:54.511Z,3.70
2018-03-29T12:43:22.146Z,3.67
2018-03-29T12:45:49.827Z,3.60
2018-03-29T12:48:17.887Z,3.70
2018-03-29T12:50:45.547Z,2.97
2018-03-29T12:53:13.202Z,3.87
2018-03-29T12:55:41.581Z,3.70
2018-03-29T12:58:11.049Z,3.70
2018-03-29T13:00:38.786Z,4.53
2018-03-29T13:03:06.430Z,4.77
2018-03-29T13:05:34.096Z,4.00
2018-03-29T13:08:02.142Z,4.77
2018-03-29T13:10:29.830Z,6.10
2018-03-29T13:12:57.432Z,4.90
2018-03-29T13:15:25.104Z,5.10
2018-03-29T13:17:52.846Z,5.60
2018-03-29T13:20:20.599Z,6.23
2018-03-29T13:22:48.340Z,6.40
2018-03-29T13:25:16.475Z,5.90
2018-03-29T13:27:44.127Z,6.87
2018-03-29T13:30:11.776Z,7.50
2018-03-29T13:32:39.501Z,7.27
2018-03-29T13:35:07.546Z,7.37
2018-03-29T13:37:35.258Z,7.10
2018-03-29T13:40:02.884Z,7.33
2018-03-29T13:42:30.909Z,7.67
2018-03-29T13:44:58.613Z,7.70
2018-03-29T13:47:26.641Z,6.77
2018-03-29T13:49:54.304Z,7.13
2018-03-29T13:52:22.022Z,7.30
2018-03-29T13:54:49.667Z,7.10
2018-03-29T13:57:17.324Z,7.40
2018-03-29T13:59:44.974Z,6.80
2018-03-29T14:02:12.626Z,7.87
2018-03-29T14:04:40.267Z,8.07
2018-03-29T14:07:07.927Z,7.17
2018-03-29T14:09:35.655Z,8.07
2018-03-29T14:12:03.680Z,7.67
2018-03-29T14:14:31.339Z,8.03
2018-03-29T14:16:59.080Z,8.47
2018-03-29T14:19:26.717Z,9.00
2018-03-29T14:21:54.769Z,8.93
2018-03-29T14:24:22.402Z,8.63
2018-03-29T14:26:50.108Z,10.20
2018-03-29T14:29:18.185Z,10.10
2018-03-29T14:31:46.240Z,11.90
2018-03-29T14:34:13.952Z,11.90
2018-03-29T14:36:41.633Z,12.57
2018-03-29T14:39:09.339Z,11.43
2018-03-29T14:41:37.008Z,11.93
2018-03-29T14:44:05.175Z,11.07
2018-03-29T14:46:33.249Z,10.67
2018-03-29T14:49:01.355Z,11.40
2018-03-29T14:51:29.085Z,10.63
2018-03-29T14:53:57.159Z,10.20
2018-03-29T14:56:25.226Z,11.50
2018-03-29T14:58:53.302Z,11.70
2018-03-29T15:01:21.382Z,10.90
2018-03-29T15:03:49.064Z,11.60
2018-03-29T15:06:16.812Z,11.10
2018-03-29T15:08:44.853Z,11.20
2018-03-29T15:11:12.517Z,11.03
2018-03-29T15:13:40.245Z,11.00
2018-03-29T15:16:07.888Z,12.53
2018-03-29T15:18:35.615Z,11.97
2018-03-29T15:21:03.693Z,12.17
2018-03-29T15:23:31.763Z,12.40
2018-03-29T15:25:59.946Z,12.97
2018-03-29T15:28:27.627Z,14.97
2018-03-29T15:30:55.307Z,13.40
2018-03-29T15:33:22.940Z,14.77
2018-03-29T15:35:50.603Z,14.50
2018-03-29T15:38:18.366Z,14.47
2018-03-29T15:40:46.054Z,14.80
2018-03-29T15:43:13.788Z,12.93
2018-03-29T15:45:41.867Z,14.30
2018-03-29T15:48:09.509Z,14.60
2018-03-29T15:50:37.562Z,14.23
2018-03-29T15:53:05.222Z,15.00
2018-03-29T15:55:32.864Z,14.67
2018-03-29T15:58:00.545Z,14.00
2018-03-29T16:00:28.198Z,13.73
2018-03-29T16:02:55.860Z,14.73
2018-03-29T16:05:23.561Z,14.40
2018-03-29T16:07:51.332Z,13.97
2018-03-29T16:10:18.978Z,14.20
2018-03-29T16:12:47.056Z,14.63
2018-03-29T16:15:14.713Z,15.07
2018-03-29T16:17:42.786Z,14.73
2018-03-29T16:20:10.856Z,15.00
2018-03-29T16:22:38.917Z,15.10
2018-03-29T16:25:06.634Z,16.43
2018-03-29T16:27:34.314Z,16.43
2018-03-29T16:30:01.970Z,17.60
2018-03-29T16:32:29.609Z,15.70
2018-03-29T16:34:57.294Z,14.63
2018-03-29T16:37:24.941Z,14.40
2018-03-29T16:39:52.599Z,16.97
2018-03-29T16:42:20.263Z,14.77
2018-03-29T16:44:47.916Z,15.80
2018-03-29T16:47:15.566Z,14.87
2018-03-29T16:49:43.257Z,15.53
2018-03-29T16:52:10.955Z,14.93
2018-03-29T16:54:38.644Z,15.27
2018-03-29T16:57:06.712Z,14.97
2018-03-29T16:59:34.784Z,14.93
2018-03-29T17:02:02.856Z,14.80
2018-03-29T17:04:30.939Z,15.13
2018-03-29T17:07:00.321Z,15.50
2018-03-29T17:09:28.001Z,15.10
2018-03-29T17:11:56.072Z,16.77
2018-03-29T17:14:24.115Z,16.47
2018-03-29T17:16:51.887Z,15.70
2018-03-29T17:19:19.524Z,16.70
2018-03-29T17:21:47.172Z,14.90
2018-03-29T17:24:14.822Z,14.40
2018-03-29T17:26:42.486Z,14.03
2018-03-29T17:29:10.144Z,14.93
2018-03-29T17:31:37.808Z,12.20
2018-03-29T17:34:05.506Z,12.90
2018-03-29T17:36:33.167Z,11.30
2018-03-29T17:39:00.826Z,10.63
2018-03-29T17:41:28.536Z,9.63
2018-03-29T17:43:56.258Z,9.60
2018-03-29T17:46:23.999Z,9.20
2018-03-29T17:48:51.804Z,8.87
2018-03-29T17:51:19.572Z,10.10
2018-03-29T17:53:47.262Z,9.07
2018-03-29T17:56:15.029Z,9.73
2018-03-29T17:58:42.706Z,9.80
2018-03-29T18:01:10.407Z,9.30
2018-03-29T18:03:38.635Z,10.63
2018-03-29T18:06:06.286Z,10.53
2018-03-29T18:08:34.016Z,9.60
2018-03-29T18:11:01.681Z,8.63
2018-03-29T18:13:29.769Z,9.40
2018-03-29T18:15:57.809Z,9.47
2018-03-29T18:18:25.971Z,7.63
2018-03-29T18:20:53.647Z,9.97
2018-03-29T18:23:21.332Z,10.77
2018-03-29T18:25:49.417Z,9.70
2018-03-29T18:28:17.541Z,9.20
2018-03-29T18:30:45.251Z,8.20
2018-03-29T18:33:12.979Z,7.87
2018-03-29T18:35:40.636Z,8.17
2018-03-29T18:38:08.426Z,8.37
2018-03-29T18:40:36.528Z,8.13
2018-03-29T18:43:04.264Z,7.23
2018-03-29T18:45:32.574Z,8.47
2018-03-29T18:48:00.474Z,7.10
2018-03-29T18:50:28.194Z,6.53
2018-03-29T18:52:55.904Z,6.70
2018-03-29T18:55:23.737Z,6.17
2018-03-29T18:57:51.395Z,6.20
2018-03-29T19:00:19.050Z,7.10
2018-03-29T19:02:46.714Z,5.77
2018-03-29T19:05:14.353Z,6.23
2018-03-29T19:07:42.394Z,6.67
2018-03-29T19:10:13.888Z,7.03
2018-03-29T19:12:41.924Z,5.80
2018-03-29T19:15:09.571Z,5.20
2018-03-29T19:17:37.252Z,5.30
2018-03-29T19:20:04.898Z,7.33
2018-03-29T19:22:32.626Z,5.87
2018-03-29T19:25:00.282Z,5.60
2018-03-29T19:27:27.970Z,5.80
2018-03-29T19:29:55.895Z,5.90
2018-03-29T19:32:23.956Z,5.20
2018-03-29T19:34:51.614Z,6.63
2018-03-29T19:37:19.660Z,6.93
2018-03-29T19:39:47.452Z,6.73
2018-03-29T19:42:15.505Z,6.83
2018-03-29T19:44:43.162Z,6.93
2018-03-29T19:47:10.829Z,5.97
2018-03-29T19:49:38.460Z,8.00
2018-03-29T19:52:06.110Z,7.10
2018-03-29T19:54:33.774Z,7.27
2018-03-29T19:57:01.494Z,8.30
2018-03-29T19:59:29.136Z,8.40
2018-03-29T20:01:57.210Z,8.43
2018-03-29T20:04:24.995Z,8.90
2018-03-29T20:06:53.096Z,9.00
2018-03-29T20:09:20.790Z,7.60
2018-03-29T20:11:48.436Z,8.70
2018-03-29T20:14:16.203Z,9.10
2018-03-29T20:16:44.050Z,8.07
2018-03-29T20:19:11.832Z,8.20
2018-03-29T20:21:40.612Z,10.03
2018-03-29T20:24:08.394Z,8.93
2018-03-29T20:26:36.364Z,8.27
2018-03-29T20:29:04.183Z,8.37
2018-03-29T20:31:32.301Z,9.40
2018-03-29T20:34:01.159Z,9.80
2018-03-29T20:36:30.320Z,9.83
2018-03-29T20:38:59.018Z,8.90
2018-03-29T20:41:27.198Z,9.17
2018-03-29T20:43:56.102Z,7.70
2018-03-29T20:46:25.093Z,9.03
2018-03-29T20:48:54.614Z,9.27
2018-03-29T20:51:22.836Z,8.60
2018-03-29T20:53:52.090Z,10.00
2018-03-29T20:56:21.455Z,9.60
2018-03-29T20:58:50.652Z,9.07
2018-03-29T21:01:19.674Z,10.90
2018-03-29T21:03:47.819Z,8.40
2018-03-29T21:06:16.554Z,9.33
2018-03-29T21:08:44.339Z,8.83
2018-03-29T21:11:13.529Z,9.10
2018-03-29T21:13:42.819Z,8.77
2018-03-29T21:16:11.627Z,8.30
2018-03-29T21:18:40.487Z,8.87
2018-03-29T21:21:09.466Z,8.80
2018-03-29T21:23:39.624Z,9.50
2018-03-29T21:26:08.594Z,8.40
2018-03-29T21:28:36.846Z,8.60
2018-03-29T21:31:05.082Z,8.30
2018-03-29T21:33:34.036Z,9.37
2018-03-29T21:36:02.379Z,9.20
2018-03-29T21:38:30.142Z,9.93
2018-03-29T21:40:58.747Z,8.87
2018-03-29T21:43:27.034Z,8.23
2018-03-29T21:45:54.796Z,9.60
2018-03-29T21:48:23.692Z,9.00
2018-03-29T21:50:52.892Z,10.00
2018-03-29T21:53:22.532Z,10.50
2018-03-29T21:55:51.381Z,10.60
2018-03-29T21:58:20.961Z,9.57
2018-03-29T22:00:49.671Z,9.70
2018-03-29T22:03:18.248Z,10.10
2018-03-29T22:05:46.290Z,9.73
2018-03-29T22:08:14.715Z,12.30
2018-03-29T22:10:43.074Z,11.57
2018-03-29T22:13:11.745Z,12.27
2018-03-29T22:15:41.403Z,11.27
2018-03-29T22:18:10.650Z,11.50
2018-03-29T22:20:38.829Z,10.87
2018-03-29T22:23:08.059Z,11.97
2018-03-29T22:25:36.342Z,12.50
2018-03-29T22:28:04.476Z,13.03
2018-03-29T22:30:34.447Z,12.33
2018-03-29T22:33:02.274Z,14.03
2018-03-29T22:35:30.449Z,11.47
2018-03-29T22:37:59.655Z,13.57
2018-03-29T22:40:28.539Z,12.60
2018-03-29T22:42:56.625Z,11.77
2018-03-29T22:45:24.314Z,13.00
2018-03-29T22:47:51.977Z,11.53
2018-03-29T22:50:19.634Z,10.97
2018-03-29T22:52:47.308Z,12.57
2018-03-29T22:55:14.965Z,12.27
2018-03-29T22:57:42.618Z,12.80
2018-03-29T23:00:10.305Z,12.23
2018-03-29T23:02:37.972Z,11.60
2018-03-29T23:05:05.642Z,12.87
2018-03-29T23:07:33.322Z,12.37
2018-03-29T23:10:01.413Z,11.60
2018-03-29T23:12:29.470Z,11.93
2018-03-29T23:14:57.541Z,13.10
2018-03-29T23:17:25.667Z,13.27
2018-03-29T23:19:53.343Z,13.00
2018-03-29T23:22:21.031Z,13.73
2018-03-29T23:24:48.693Z,13.23
2018-03-29T23:27:16.380Z,13.07
2018-03-29T23:29:44.451Z,15.17
2018-03-29T23:32:12.512Z,14.77
2018-03-29T23:34:40.838Z,14.90
2018-03-29T23:37:08.737Z,14.27
2018-03-29T23:39:37.127Z,14.50
2018-03-29T23:42:06.200Z,13.90
2018-03-29T23:44:34.010Z,13.50
2018-03-29T23:47:01.775Z,14.30
2018-03-29T23:49:29.811Z,12.00
2018-03-29T23:51:59.338Z,11.70
2018-03-29T23:54:27.491Z,12.27
2018-03-29T23:56:55.335Z,13.20
2018-03-29T23:59:23.532Z,13.00
